createdAt,value
2019-01-06T00:00:00.799Z,914.18
2019-01-06T00:01:00.526Z,914.19
2019-01-06T00:02:00.461Z,914.20
2019-01-06T00:03:00.463Z,914.23
2019-01-06T00:04:00.411Z,914.26
2019-01-06T00:05:00.370Z,914.27
2019-01-06T00:06:00.323Z,914.28
2019-01-06T00:07:00.334Z,914.27
2019-01-06T00:08:00.261Z,914.33
2019-01-06T00:09:00.260Z,914.31
2019-01-06T00:10:00.240Z,914.31
2019-01-06T00:11:00.758Z,914.34
2019-01-06T00:12:00.164Z,914.33
2019-01-06T00:13:00.150Z,914.39
2019-01-06T00:14:00.095Z,914.39
2019-01-06T00:15:00.087Z,914.37
2019-01-06T00:16:00.431Z,914.40
2019-01-06T00:17:00.088Z,914.41
2019-01-06T00:17:59.959Z,914.40
2019-01-06T00:18:59.940Z,914.41
2019-01-06T00:19:59.874Z,914.41
2019-01-06T00:20:59.862Z,914.40
2019-01-06T00:22:00.224Z,914.37
2019-01-06T00:22:59.785Z,914.40
2019-01-06T00:23:59.772Z,914.40
2019-01-06T00:24:59.702Z,914.40
2019-01-06T00:25:59.694Z,914.39
2019-01-06T00:26:59.663Z,914.41
2019-01-06T00:27:59.632Z,914.41
2019-01-06T00:28:59.586Z,914.40
2019-01-06T00:29:59.577Z,914.40
2019-01-06T00:30:59.509Z,914.41
2019-01-06T00:31:59.500Z,914.38
2019-01-06T00:32:59.685Z,914.39
2019-01-06T00:33:59.583Z,914.35
2019-01-06T00:34:59.411Z,914.34
2019-01-06T00:35:59.371Z,914.33
2019-01-06T00:36:59.339Z,914.31
2019-01-06T00:37:59.308Z,914.32
2019-01-06T00:38:59.551Z,914.32
2019-01-06T00:39:59.244Z,914.28
2019-01-06T00:40:59.210Z,914.33
2019-01-06T00:41:59.172Z,914.36
2019-01-06T00:42:59.158Z,914.35
2019-01-06T00:43:59.127Z,914.34
2019-01-06T00:44:59.270Z,914.37
2019-01-06T00:45:59.048Z,914.34
2019-01-06T00:46:59.022Z,914.36
2019-01-06T00:47:59.025Z,914.36
2019-01-06T00:48:58.954Z,914.35
2019-01-06T00:49:58.908Z,914.32
2019-01-06T00:50:58.897Z,914.35
2019-01-06T00:51:58.865Z,914.34
2019-01-06T00:52:58.823Z,914.34
2019-01-06T00:53:58.795Z,914.32
2019-01-06T00:54:58.760Z,914.34
2019-01-06T00:55:58.708Z,914.32
2019-01-06T00:56:58.685Z,914.33
2019-01-06T00:57:58.671Z,914.31
2019-01-06T00:58:58.622Z,914.32
2019-01-06T00:59:58.578Z,914.31
2019-01-06T01:01:58.537Z,914.38
2019-01-06T01:02:58.515Z,914.40
2019-01-06T01:03:58.461Z,914.42
2019-01-06T01:04:58.442Z,914.46
2019-01-06T01:05:58.395Z,914.42
2019-01-06T01:06:58.549Z,914.41
2019-01-06T01:07:58.338Z,914.44
2019-01-06T01:08:58.311Z,914.41
2019-01-06T01:09:58.271Z,914.36
2019-01-06T01:10:58.260Z,914.35
2019-01-06T01:11:58.188Z,914.34
2019-01-06T01:12:58.424Z,914.28
2019-01-06T01:13:58.116Z,914.31
2019-01-06T01:14:58.100Z,914.29
2019-01-06T01:15:58.053Z,914.26
2019-01-06T01:16:58.136Z,914.25
2019-01-06T01:17:58.011Z,914.29
2019-01-06T01:18:58.158Z,914.26
2019-01-06T01:19:57.997Z,914.26
2019-01-06T01:20:57.907Z,914.24
2019-01-06T01:21:57.884Z,914.22
2019-01-06T01:22:57.851Z,914.24
2019-01-06T01:23:57.811Z,914.20
2019-01-06T01:24:57.762Z,914.18
2019-01-06T01:25:57.753Z,914.22
2019-01-06T01:26:57.708Z,914.21
2019-01-06T01:27:57.697Z,914.21
2019-01-06T01:28:57.637Z,914.25
2019-01-06T01:29:58.032Z,914.22
2019-01-06T01:30:57.634Z,914.19
2019-01-06T01:31:57.555Z,914.19
2019-01-06T01:32:57.490Z,914.19
2019-01-06T01:33:57.480Z,914.14
2019-01-06T01:34:57.454Z,914.13
2019-01-06T01:35:57.466Z,914.10
2019-01-06T01:36:57.390Z,914.08
2019-01-06T01:37:57.367Z,914.08
2019-01-06T01:38:57.329Z,914.06
2019-01-06T01:39:57.308Z,914.00
2019-01-06T01:40:57.427Z,913.98
2019-01-06T01:41:57.216Z,914.00
2019-01-06T01:42:57.163Z,913.99
2019-01-06T01:43:57.146Z,914.00
2019-01-06T01:44:57.105Z,914.05
2019-01-06T01:45:57.108Z,913.99
2019-01-06T01:46:57.447Z,914.05
2019-01-06T01:47:57.031Z,914.06
2019-01-06T01:48:56.993Z,914.04
2019-01-06T01:49:56.968Z,914.06
2019-01-06T01:50:56.899Z,914.04
2019-01-06T01:51:56.886Z,914.08
2019-01-06T01:52:57.003Z,914.10
2019-01-06T01:53:56.815Z,914.13
2019-01-06T01:54:56.807Z,914.12
2019-01-06T01:55:56.776Z,914.11
2019-01-06T01:56:56.713Z,914.12
2019-01-06T01:57:56.691Z,914.13
2019-01-06T01:58:56.658Z,914.12
2019-01-06T01:59:56.630Z,914.12
2019-01-06T02:00:56.590Z,914.16
2019-01-06T02:01:56.582Z,914.14
2019-01-06T02:02:56.575Z,914.12
2019-01-06T02:03:56.653Z,914.13
2019-01-06T02:04:56.481Z,914.18
2019-01-06T02:05:56.435Z,914.12
2019-01-06T02:06:56.443Z,914.11
2019-01-06T02:07:56.366Z,914.10
2019-01-06T02:08:56.357Z,914.14
2019-01-06T02:09:56.516Z,914.13
2019-01-06T02:10:56.278Z,914.10
2019-01-06T02:11:56.276Z,914.09
2019-01-06T02:12:56.189Z,914.09
2019-01-06T02:13:56.179Z,914.09
2019-01-06T02:14:56.143Z,914.08
2019-01-06T02:15:56.379Z,914.04
2019-01-06T02:16:56.085Z,914.06
2019-01-06T02:17:56.027Z,914.05
2019-01-06T02:18:56.032Z,914.03
2019-01-06T02:19:55.995Z,914.00
2019-01-06T02:20:55.943Z,914.04
2019-01-06T02:21:55.895Z,914.03
2019-01-06T02:22:55.859Z,914.01
2019-01-06T02:23:55.857Z,914.01
2019-01-06T02:24:55.809Z,914.01
2019-01-06T02:25:55.781Z,914.04
2019-01-06T02:26:55.733Z,914.01
2019-01-06T02:27:55.743Z,914.03
2019-01-06T02:28:55.691Z,914.00
2019-01-06T02:29:55.640Z,914.01
2019-01-06T02:30:55.619Z,913.97
2019-01-06T02:31:55.932Z,913.97
2019-01-06T02:32:55.547Z,913.93
2019-01-06T02:33:55.523Z,913.96
2019-01-06T02:34:55.499Z,913.94
2019-01-06T02:35:55.461Z,913.95
2019-01-06T02:36:55.439Z,913.94
2019-01-06T02:37:55.370Z,913.91
2019-01-06T02:38:55.339Z,913.91
2019-01-06T02:39:55.324Z,913.91
2019-01-06T02:40:55.298Z,913.92
2019-01-06T02:41:55.251Z,913.91
2019-01-06T02:42:55.402Z,913.87
2019-01-06T02:43:55.193Z,913.84
2019-01-06T02:44:55.214Z,913.84
2019-01-06T02:45:55.114Z,913.82
2019-01-06T02:46:55.084Z,913.80
2019-01-06T02:47:55.056Z,913.74
2019-01-06T02:48:55.207Z,913.75
2019-01-06T02:49:55.044Z,913.77
2019-01-06T02:50:54.984Z,913.76
2019-01-06T02:51:54.905Z,913.72
2019-01-06T02:52:54.893Z,913.75
2019-01-06T02:53:54.852Z,913.72
2019-01-06T02:54:54.843Z,913.74
2019-01-06T02:55:54.825Z,913.75
2019-01-06T02:56:54.739Z,913.74
2019-01-06T02:57:54.712Z,913.78
2019-01-06T02:58:54.722Z,913.76
2019-01-06T02:59:54.697Z,913.80
2019-01-06T03:00:54.615Z,913.82
2019-01-06T03:01:54.607Z,913.81
2019-01-06T03:02:54.560Z,913.82
2019-01-06T03:03:54.547Z,913.80
2019-01-06T03:04:54.837Z,913.80
2019-01-06T03:05:54.450Z,913.82
2019-01-06T03:06:54.439Z,913.82
2019-01-06T03:07:54.389Z,913.84
2019-01-06T03:08:54.371Z,913.86
2019-01-06T03:09:54.345Z,913.86
2019-01-06T03:10:54.447Z,913.87
2019-01-06T03:11:54.252Z,913.86
2019-01-06T03:12:54.235Z,913.83
2019-01-06T03:13:54.193Z,913.84
2019-01-06T03:14:54.266Z,913.81
2019-01-06T03:15:54.142Z,913.82
2019-01-06T03:16:54.252Z,913.80
2019-01-06T03:17:54.055Z,913.79
2019-01-06T03:18:54.050Z,913.78
2019-01-06T03:19:53.986Z,913.79
2019-01-06T03:20:53.979Z,913.76
2019-01-06T03:21:53.943Z,913.76
2019-01-06T03:22:53.896Z,913.78
2019-01-06T03:23:53.880Z,913.80
2019-01-06T03:24:53.837Z,913.79
2019-01-06T03:25:53.799Z,913.81
2019-01-06T03:26:53.782Z,913.79
2019-01-06T03:27:53.742Z,913.78
2019-01-06T03:28:53.699Z,913.80
2019-01-06T03:29:53.731Z,913.83
2019-01-06T03:30:53.631Z,913.82
2019-01-06T03:31:53.620Z,913.86
2019-01-06T03:32:53.959Z,913.86
2019-01-06T03:33:53.565Z,913.84
2019-01-06T03:34:53.520Z,913.86
2019-01-06T03:35:53.477Z,913.86
2019-01-06T03:36:53.461Z,913.88
2019-01-06T03:37:53.426Z,913.92
2019-01-06T03:38:53.573Z,913.91
2019-01-06T03:39:53.339Z,913.92
2019-01-06T03:40:53.301Z,913.90
2019-01-06T03:41:53.296Z,913.90
2019-01-06T03:42:53.237Z,913.90
2019-01-06T03:43:53.219Z,913.89
2019-01-06T03:44:53.541Z,913.85
2019-01-06T03:45:53.168Z,913.83
2019-01-06T03:46:53.125Z,913.82
2019-01-06T03:47:53.100Z,913.82
2019-01-06T03:48:53.033Z,913.84
2019-01-06T03:49:53.005Z,913.83
2019-01-06T03:50:53.185Z,913.87
2019-01-06T03:51:53.008Z,913.87
2019-01-06T03:52:53.112Z,913.90
2019-01-06T03:53:52.910Z,913.90
2019-01-06T03:54:52.859Z,913.88
2019-01-06T03:55:52.807Z,913.89
2019-01-06T03:56:52.805Z,913.83
2019-01-06T03:57:52.774Z,913.81
2019-01-06T03:58:52.731Z,913.81
2019-01-06T03:59:52.692Z,913.74
2019-01-06T04:00:52.643Z,913.77
2019-01-06T04:01:52.978Z,913.81
2019-01-06T04:02:52.610Z,913.79
2019-01-06T04:03:52.564Z,913.82
2019-01-06T04:04:52.526Z,913.79
2019-01-06T04:05:52.523Z,913.79
2019-01-06T04:06:52.469Z,913.77
2019-01-06T04:07:52.436Z,913.79
2019-01-06T04:08:52.391Z,913.76
2019-01-06T04:09:52.347Z,913.76
2019-01-06T04:10:52.336Z,913.77
2019-01-06T04:11:52.299Z,913.79
2019-01-06T04:12:52.464Z,913.77
2019-01-06T04:13:52.226Z,913.77
2019-01-06T04:14:52.183Z,913.73
2019-01-06T04:15:52.151Z,913.72
2019-01-06T04:16:52.116Z,913.71
2019-01-06T04:17:52.112Z,913.73
2019-01-06T04:18:52.224Z,913.73
2019-01-06T04:19:52.038Z,913.73
2019-01-06T04:20:52.022Z,913.69
2019-01-06T04:21:51.953Z,913.69
2019-01-06T04:22:51.930Z,913.69
2019-01-06T04:23:51.953Z,913.68
2019-01-06T04:24:51.857Z,913.62
2019-01-06T04:25:51.836Z,913.61
2019-01-06T04:26:51.802Z,913.62
2019-01-06T04:27:51.767Z,913.60
2019-01-06T04:28:51.734Z,913.60
2019-01-06T04:29:51.695Z,913.63
2019-01-06T04:30:51.678Z,913.59
2019-01-06T04:31:51.675Z,913.58
2019-01-06T04:32:51.617Z,913.59
2019-01-06T04:33:51.592Z,913.61
2019-01-06T04:34:51.753Z,913.62
2019-01-06T04:35:51.509Z,913.58
2019-01-06T04:36:51.473Z,913.58
2019-01-06T04:37:51.434Z,913.59
2019-01-06T04:38:51.436Z,913.55
2019-01-06T04:39:51.404Z,913.55
2019-01-06T04:40:51.505Z,913.53
2019-01-06T04:41:51.302Z,913.48
2019-01-06T04:42:51.267Z,913.44
2019-01-06T04:43:51.243Z,913.40
2019-01-06T04:44:51.211Z,913.40
2019-01-06T04:45:51.171Z,913.39
2019-01-06T04:46:51.298Z,913.40
2019-01-06T04:47:51.091Z,913.41
2019-01-06T04:48:51.069Z,913.44
2019-01-06T04:49:51.054Z,913.48
2019-01-06T04:50:51.023Z,913.53
2019-01-06T04:51:50.988Z,913.62
2019-01-06T04:52:50.941Z,913.61
2019-01-06T04:53:50.908Z,913.56
2019-01-06T04:54:50.857Z,913.53
2019-01-06T04:55:50.884Z,913.46
2019-01-06T04:56:50.801Z,913.41
2019-01-06T04:57:50.803Z,913.36
2019-01-06T04:58:50.765Z,913.30
2019-01-06T04:59:50.723Z,913.28
2019-01-06T05:00:50.694Z,913.20
2019-01-06T05:01:50.691Z,913.14
2019-01-06T05:02:50.808Z,913.08
2019-01-06T05:03:50.577Z,913.06
2019-01-06T05:04:50.575Z,912.94
2019-01-06T05:05:50.519Z,912.84
2019-01-06T05:06:50.504Z,912.72
2019-01-06T05:07:50.458Z,912.60
2019-01-06T05:08:50.630Z,912.53
2019-01-06T05:09:50.399Z,912.41
2019-01-06T05:10:50.375Z,912.34
2019-01-06T05:11:50.306Z,912.33
2019-01-06T05:12:50.294Z,912.31
2019-01-06T05:13:50.273Z,912.31
2019-01-06T05:14:50.565Z,912.36
2019-01-06T05:15:50.189Z,912.44
2019-01-06T05:16:50.154Z,912.45
2019-01-06T05:17:50.117Z,912.48
2019-01-06T05:18:50.080Z,912.51
2019-01-06T05:19:50.066Z,912.51
2019-01-06T05:20:50.224Z,912.48
2019-01-06T05:21:49.977Z,912.45
2019-01-06T05:22:49.965Z,912.43
2019-01-06T05:23:49.897Z,912.38
2019-01-06T05:24:49.930Z,912.36
2019-01-06T05:25:50.064Z,912.38
2019-01-06T05:26:49.817Z,912.36
2019-01-06T05:27:49.784Z,912.38
2019-01-06T05:28:49.777Z,912.37
2019-01-06T05:29:49.702Z,912.31
2019-01-06T05:30:49.974Z,912.34
2019-01-06T05:31:49.670Z,912.33
2019-01-06T05:32:49.622Z,912.35
2019-01-06T05:33:49.589Z,912.28
2019-01-06T05:34:49.540Z,912.29
2019-01-06T05:35:49.730Z,912.26
2019-01-06T05:36:49.508Z,912.24
2019-01-06T05:37:49.485Z,912.24
2019-01-06T05:38:49.434Z,912.21
2019-01-06T05:39:49.376Z,912.28
2019-01-06T05:40:49.361Z,912.31
2019-01-06T05:41:49.484Z,912.33
2019-01-06T05:42:49.295Z,912.27
2019-01-06T05:43:49.257Z,912.29
2019-01-06T05:44:49.236Z,912.26
2019-01-06T05:45:49.230Z,912.29
2019-01-06T05:46:49.198Z,912.28
2019-01-06T05:47:49.464Z,912.26
2019-01-06T05:48:49.106Z,912.25
2019-01-06T05:49:49.068Z,912.27
2019-01-06T05:50:49.021Z,912.30
2019-01-06T05:51:49.050Z,912.32
2019-01-06T05:52:48.963Z,912.38
2019-01-06T05:53:49.153Z,912.43
2019-01-06T05:54:48.879Z,912.52
2019-01-06T05:55:48.863Z,912.62
2019-01-06T05:56:48.853Z,912.73
2019-01-06T05:57:48.830Z,912.81
2019-01-06T05:58:48.747Z,912.93
2019-01-06T05:59:48.720Z,913.04
2019-01-06T06:00:48.700Z,913.06
2019-01-06T06:01:48.657Z,913.07
2019-01-06T06:02:48.613Z,913.06
2019-01-06T06:03:48.621Z,913.10
2019-01-06T06:04:48.919Z,913.09
2019-01-06T06:05:48.541Z,913.12
2019-01-06T06:06:48.487Z,913.12
2019-01-06T06:07:48.475Z,913.13
2019-01-06T06:08:48.422Z,913.15
2019-01-06T06:09:48.406Z,913.17
2019-01-06T06:10:48.731Z,913.21
2019-01-06T06:11:48.353Z,913.20
2019-01-06T06:12:48.305Z,913.20
2019-01-06T06:13:48.276Z,913.24
2019-01-06T06:14:48.232Z,913.29
2019-01-06T06:15:48.182Z,913.26
2019-01-06T06:16:48.331Z,913.27
2019-01-06T06:17:48.155Z,913.27
2019-01-06T06:18:48.110Z,913.25
2019-01-06T06:19:48.071Z,913.28
2019-01-06T06:20:48.023Z,913.25
2019-01-06T06:21:48.006Z,913.28
2019-01-06T06:22:47.977Z,913.25
2019-01-06T06:23:47.950Z,913.22
2019-01-06T06:24:47.905Z,913.21
2019-01-06T06:25:47.890Z,913.20
2019-01-06T06:26:47.866Z,913.17
2019-01-06T06:27:47.803Z,913.14
2019-01-06T06:28:47.775Z,913.15
2019-01-06T06:29:47.742Z,913.21
2019-01-06T06:30:47.697Z,913.28
2019-01-06T06:31:47.720Z,913.31
2019-01-06T06:32:47.652Z,913.36
2019-01-06T06:33:47.621Z,913.35
2019-01-06T06:34:47.580Z,913.38
2019-01-06T06:35:47.557Z,913.38
2019-01-06T06:36:47.516Z,913.38
2019-01-06T06:37:47.678Z,913.36
2019-01-06T06:38:47.451Z,913.39
2019-01-06T06:39:47.427Z,913.45
2019-01-06T06:40:47.400Z,913.44
2019-01-06T06:41:47.334Z,913.47
2019-01-06T06:42:47.307Z,913.48
2019-01-06T06:43:47.443Z,913.49
2019-01-06T06:44:47.244Z,913.56
2019-01-06T06:45:47.203Z,913.51
2019-01-06T06:46:47.214Z,913.59
2019-01-06T06:47:47.227Z,913.59
2019-01-06T06:48:47.112Z,913.62
2019-01-06T06:49:47.082Z,913.64
2019-01-06T06:50:47.050Z,913.59
2019-01-06T06:51:47.004Z,913.55
2019-01-06T06:52:46.996Z,913.57
2019-01-06T06:53:46.932Z,913.57
2019-01-06T06:54:46.924Z,913.60
2019-01-06T06:55:46.889Z,913.59
2019-01-06T06:56:46.853Z,913.64
2019-01-06T06:57:46.825Z,913.66
2019-01-06T06:58:46.807Z,913.69
2019-01-06T06:59:46.794Z,913.67
2019-01-06T07:00:46.728Z,913.64
2019-01-06T07:01:46.688Z,913.64
2019-01-06T07:02:46.665Z,913.66
2019-01-06T07:03:46.627Z,913.65
2019-01-06T07:04:46.735Z,913.71
2019-01-06T07:05:46.552Z,913.73
2019-01-06T07:06:46.525Z,913.73
2019-01-06T07:07:46.478Z,913.74
2019-01-06T07:08:46.469Z,913.75
2019-01-06T07:09:46.433Z,913.71
2019-01-06T07:10:46.584Z,913.71
2019-01-06T07:11:46.365Z,913.70
2019-01-06T07:12:46.320Z,913.67
2019-01-06T07:13:46.278Z,913.66
2019-01-06T07:14:46.247Z,913.70
2019-01-06T07:15:46.253Z,913.65
2019-01-06T07:16:46.393Z,913.65
2019-01-06T07:17:46.145Z,913.66
2019-01-06T07:18:46.135Z,913.67
2019-01-06T07:19:46.090Z,913.65
2019-01-06T07:20:46.045Z,913.65
2019-01-06T07:21:47.739Z,913.64
2019-01-06T07:22:46.027Z,913.64
2019-01-06T07:23:45.945Z,913.64
2019-01-06T07:24:45.921Z,913.66
2019-01-06T07:25:45.891Z,913.69
2019-01-06T07:26:45.873Z,913.70
2019-01-06T07:27:46.511Z,913.67
2019-01-06T07:28:45.782Z,913.64
2019-01-06T07:29:45.758Z,913.65
2019-01-06T07:30:45.728Z,913.63
2019-01-06T07:31:45.700Z,913.61
2019-01-06T07:32:45.662Z,913.61
2019-01-06T07:33:45.603Z,913.58
2019-01-06T07:34:45.594Z,913.62
2019-01-06T07:35:45.598Z,913.61
2019-01-06T07:36:45.521Z,913.60
2019-01-06T07:37:45.626Z,913.58
2019-01-06T07:38:45.557Z,913.60
2019-01-06T07:39:45.442Z,913.58
2019-01-06T07:40:45.379Z,913.61
2019-01-06T07:41:45.342Z,913.58
2019-01-06T07:42:45.434Z,913.63
2019-01-06T07:43:45.422Z,913.62
2019-01-06T07:44:45.256Z,913.68
2019-01-06T07:45:45.266Z,913.70
2019-01-06T07:46:45.195Z,913.69
2019-01-06T07:47:45.175Z,913.69
2019-01-06T07:48:45.138Z,913.70
2019-01-06T07:49:45.095Z,913.70
2019-01-06T07:50:45.067Z,913.70
2019-01-06T07:51:45.087Z,913.70
2019-01-06T07:52:44.973Z,913.66
2019-01-06T07:53:44.957Z,913.69
2019-01-06T07:54:45.002Z,913.69
2019-01-06T07:55:44.891Z,913.73
2019-01-06T07:56:44.855Z,913.70
2019-01-06T07:57:44.846Z,913.74
2019-01-06T07:58:44.784Z,913.71
2019-01-06T07:59:44.774Z,913.74
2019-01-06T08:00:44.723Z,913.78
2019-01-06T08:01:44.712Z,913.80
2019-01-06T08:02:44.704Z,913.83
2019-01-06T08:03:44.622Z,913.86
2019-01-06T08:04:44.752Z,913.91
2019-01-06T08:05:44.578Z,913.94
2019-01-06T08:06:44.549Z,913.95
2019-01-06T08:07:44.485Z,913.98
2019-01-06T08:08:44.446Z,913.96
2019-01-06T08:09:44.588Z,913.96
2019-01-06T08:10:44.426Z,913.97
2019-01-06T08:11:44.361Z,913.92
2019-01-06T08:12:44.327Z,913.97
2019-01-06T08:13:44.296Z,913.97
2019-01-06T08:14:44.267Z,913.96
2019-01-06T08:15:44.257Z,914.01
2019-01-06T08:16:44.252Z,914.00
2019-01-06T08:17:44.164Z,914.00
2019-01-06T08:18:44.137Z,914.04
2019-01-06T08:19:44.098Z,914.01
2019-01-06T08:20:44.058Z,914.00
2019-01-06T08:21:44.023Z,914.02
2019-01-06T08:22:44.017Z,914.03
2019-01-06T08:23:43.962Z,914.07
2019-01-06T08:24:44.142Z,914.03
2019-01-06T08:25:43.915Z,914.03
2019-01-06T08:26:43.859Z,914.08
2019-01-06T08:27:43.821Z,914.06
2019-01-06T08:28:43.821Z,914.06
2019-01-06T08:29:44.010Z,914.06
2019-01-06T08:30:43.732Z,914.07
2019-01-06T08:31:43.703Z,914.10
2019-01-06T08:32:43.651Z,914.14
2019-01-06T08:33:43.666Z,914.11
2019-01-06T08:34:43.703Z,914.11
2019-01-06T08:35:43.585Z,914.12
2019-01-06T08:36:43.557Z,914.12
2019-01-06T08:37:43.496Z,914.12
2019-01-06T08:38:43.503Z,914.09
2019-01-06T08:39:43.736Z,914.10
2019-01-06T08:40:43.427Z,914.11
2019-01-06T08:41:43.371Z,914.12
2019-01-06T08:42:43.330Z,914.09
2019-01-06T08:43:43.374Z,914.09
2019-01-06T08:44:43.542Z,914.10
2019-01-06T08:45:43.224Z,914.07
2019-01-06T08:46:43.209Z,914.07
2019-01-06T08:47:43.158Z,914.08
2019-01-06T08:48:43.137Z,914.05
2019-01-06T08:49:43.110Z,914.08
2019-01-06T08:50:43.059Z,914.07
2019-01-06T08:51:43.066Z,914.07
2019-01-06T08:52:43.011Z,914.06
2019-01-06T08:53:42.962Z,914.04
2019-01-06T08:54:43.528Z,914.06
2019-01-06T08:55:42.888Z,914.04
2019-01-06T08:56:42.876Z,914.08
2019-01-06T08:57:42.830Z,914.11
2019-01-06T08:58:42.791Z,914.09
2019-01-06T08:59:42.758Z,914.07
2019-01-06T09:00:42.746Z,914.10
2019-01-06T09:01:42.683Z,914.11
2019-01-06T09:02:42.663Z,914.11
2019-01-06T09:03:42.627Z,914.12
2019-01-06T09:04:42.764Z,914.08
2019-01-06T09:05:42.573Z,914.07
2019-01-06T09:06:42.519Z,914.05
2019-01-06T09:07:42.482Z,914.08
2019-01-06T09:08:42.457Z,914.07
2019-01-06T09:09:45.766Z,914.09
2019-01-06T09:10:42.453Z,914.03
2019-01-06T09:11:42.365Z,914.05
2019-01-06T09:12:43.264Z,914.05
2019-01-06T09:13:42.294Z,914.07
2019-01-06T09:14:42.331Z,914.06
2019-01-06T09:15:42.290Z,914.01
2019-01-06T09:16:42.200Z,914.01
2019-01-06T09:17:42.165Z,913.98
2019-01-06T09:18:42.135Z,913.96
2019-01-06T09:19:49.999Z,913.97
2019-01-06T09:20:42.074Z,913.98
2019-01-06T09:21:42.051Z,913.96
2019-01-06T09:22:42.012Z,913.99
2019-01-06T09:23:42.056Z,914.02
2019-01-06T09:24:41.966Z,914.01
2019-01-06T09:25:41.893Z,913.96
2019-01-06T09:26:41.879Z,913.95
2019-01-06T09:27:41.841Z,913.96
2019-01-06T09:28:41.814Z,913.97
2019-01-06T09:29:41.773Z,913.95
2019-01-06T09:30:41.731Z,913.95
2019-01-06T09:31:41.706Z,913.94
2019-01-06T09:32:41.685Z,913.90
2019-01-06T09:33:41.626Z,913.96
2019-01-06T09:34:41.582Z,913.94
2019-01-06T09:35:41.563Z,913.88
2019-01-06T09:36:41.745Z,913.86
2019-01-06T09:37:41.485Z,913.83
2019-01-06T09:38:41.474Z,913.82
2019-01-06T09:39:41.428Z,913.84
2019-01-06T09:40:41.407Z,913.86
2019-01-06T09:41:41.366Z,913.86
2019-01-06T09:42:41.479Z,913.87
2019-01-06T09:43:41.302Z,913.84
2019-01-06T09:44:41.287Z,913.83
2019-01-06T09:45:41.229Z,913.83
2019-01-06T09:46:41.183Z,913.84
2019-01-06T09:47:41.161Z,913.84
2019-01-06T09:48:41.142Z,913.85
2019-01-06T09:49:41.099Z,913.84
2019-01-06T09:50:41.056Z,913.86
2019-01-06T09:51:41.179Z,913.84
2019-01-06T09:52:41.013Z,913.82
2019-01-06T09:53:40.957Z,913.77
2019-01-06T09:54:40.932Z,913.74
2019-01-06T09:55:40.903Z,913.71
2019-01-06T09:56:40.864Z,913.62
2019-01-06T09:57:40.868Z,913.61
2019-01-06T09:58:40.830Z,913.56
2019-01-06T09:59:40.764Z,913.53
2019-01-06T10:00:40.734Z,913.47
2019-01-06T10:01:40.706Z,913.50
2019-01-06T10:02:40.664Z,913.50
2019-01-06T10:03:40.648Z,913.51
2019-01-06T10:04:40.594Z,913.54
2019-01-06T10:05:40.559Z,913.60
2019-01-06T10:06:40.549Z,913.59
2019-01-06T10:07:40.522Z,913.60
2019-01-06T10:08:40.691Z,913.67
2019-01-06T10:09:40.433Z,913.67
2019-01-06T10:10:40.448Z,913.66
2019-01-06T10:11:40.365Z,913.64
2019-01-06T10:12:40.349Z,913.70
2019-01-06T10:13:40.301Z,913.67
2019-01-06T10:14:40.265Z,913.69
2019-01-06T10:15:40.247Z,913.68
2019-01-06T10:16:40.200Z,913.72
2019-01-06T10:17:40.200Z,913.69
2019-01-06T10:18:40.157Z,913.69
2019-01-06T10:19:40.150Z,913.66
2019-01-06T10:20:40.064Z,913.71
2019-01-06T10:21:40.042Z,913.69
2019-01-06T10:22:40.012Z,913.67
2019-01-06T10:23:39.973Z,913.66
2019-01-06T10:24:39.927Z,913.63
2019-01-06T10:25:39.899Z,913.66
2019-01-06T10:26:39.876Z,913.63
2019-01-06T10:27:39.824Z,913.60
2019-01-06T10:28:39.827Z,913.62
2019-01-06T10:29:39.781Z,913.59
2019-01-06T10:30:39.731Z,913.50
2019-01-06T10:31:39.724Z,913.47
2019-01-06T10:32:39.704Z,913.47
2019-01-06T10:33:39.670Z,913.43
2019-01-06T10:34:39.591Z,913.45
2019-01-06T10:35:39.640Z,913.42
2019-01-06T10:36:39.543Z,913.44
2019-01-06T10:37:39.503Z,913.44
2019-01-06T10:38:39.495Z,913.46
2019-01-06T10:39:39.439Z,913.45
2019-01-06T10:40:39.466Z,913.44
2019-01-06T10:41:39.550Z,913.46
2019-01-06T10:42:39.348Z,913.48
2019-01-06T10:43:39.332Z,913.47
2019-01-06T10:44:39.282Z,913.48
2019-01-06T10:45:39.246Z,913.45
2019-01-06T10:46:39.209Z,913.49
2019-01-06T10:47:39.151Z,913.49
2019-01-06T10:48:39.157Z,913.48
2019-01-06T10:49:39.116Z,913.49
2019-01-06T10:50:39.101Z,913.53
2019-01-06T10:51:39.061Z,913.54
2019-01-06T10:52:38.996Z,913.54
2019-01-06T10:53:38.971Z,913.59
2019-01-06T10:54:38.985Z,913.63
2019-01-06T10:55:38.965Z,913.66
2019-01-06T10:56:38.922Z,913.68
2019-01-06T10:57:38.854Z,913.69
2019-01-06T10:58:38.834Z,913.70
2019-01-06T10:59:38.790Z,913.73
2019-01-06T11:00:38.739Z,913.72
2019-01-06T11:02:38.701Z,913.75
2019-01-06T11:03:38.651Z,913.74
2019-01-06T11:04:38.636Z,913.79
2019-01-06T11:05:38.599Z,913.75
2019-01-06T11:06:38.551Z,913.78
2019-01-06T11:07:38.658Z,913.80
2019-01-06T11:08:38.499Z,913.79
2019-01-06T11:09:38.445Z,913.80
2019-01-06T11:10:38.439Z,913.82
2019-01-06T11:11:38.386Z,913.84
2019-01-06T11:12:38.390Z,913.78
2019-01-06T11:13:38.380Z,913.77
2019-01-06T11:14:38.288Z,913.79
2019-01-06T11:15:38.248Z,913.82
2019-01-06T11:16:38.225Z,913.86
2019-01-06T11:17:38.204Z,913.84
2019-01-06T11:18:38.160Z,913.85
2019-01-06T11:19:38.106Z,913.93
2019-01-06T11:20:38.097Z,913.92
2019-01-06T11:21:38.068Z,913.90
2019-01-06T11:22:38.026Z,913.94
2019-01-06T11:23:38.002Z,914.01
2019-01-06T11:24:37.949Z,913.99
2019-01-06T11:25:37.971Z,914.05
2019-01-06T11:26:37.897Z,914.09
2019-01-06T11:27:37.903Z,914.11
2019-01-06T11:28:37.846Z,914.09
2019-01-06T11:29:37.807Z,914.15
2019-01-06T11:30:37.773Z,914.16
2019-01-06T11:31:37.737Z,914.21
2019-01-06T11:32:37.700Z,914.19
2019-01-06T11:33:37.684Z,914.18
2019-01-06T11:34:37.661Z,914.18
2019-01-06T11:35:37.598Z,914.22
2019-01-06T11:36:37.568Z,914.24
2019-01-06T11:37:37.549Z,914.22
2019-01-06T11:38:37.496Z,914.19
2019-01-06T11:39:37.463Z,914.19
2019-01-06T11:40:37.429Z,914.16
2019-01-06T11:41:37.389Z,914.19
2019-01-06T11:42:37.380Z,914.18
2019-01-06T11:43:37.431Z,914.19
2019-01-06T11:44:37.313Z,914.18
2019-01-06T11:45:37.288Z,914.25
2019-01-06T11:46:37.251Z,914.27
2019-01-06T11:47:37.208Z,914.29
2019-01-06T11:48:37.176Z,914.29
2019-01-06T11:49:37.154Z,914.31
2019-01-06T11:50:37.119Z,914.33
2019-01-06T11:51:37.115Z,914.32
2019-01-06T11:52:37.068Z,914.27
2019-01-06T11:53:37.016Z,914.32
2019-01-06T11:54:37.006Z,914.32
2019-01-06T11:55:37.011Z,914.33
2019-01-06T11:56:36.959Z,914.29
2019-01-06T11:57:36.907Z,914.33
2019-01-06T11:58:36.874Z,914.32
2019-01-06T11:59:36.821Z,914.33
2019-01-06T12:00:36.788Z,914.35
2019-01-06T12:01:36.746Z,914.39
2019-01-06T12:02:39.208Z,914.41
2019-01-06T12:03:36.683Z,914.41
2019-01-06T12:04:36.638Z,914.41
2019-01-06T12:05:36.621Z,914.41
2019-01-06T12:06:36.596Z,914.41
2019-01-06T12:07:36.556Z,914.42
2019-01-06T12:08:40.961Z,914.40
2019-01-06T12:09:36.490Z,914.40
2019-01-06T12:10:36.477Z,914.39
2019-01-06T12:11:36.450Z,914.38
2019-01-06T12:12:36.400Z,914.38
2019-01-06T12:13:36.359Z,914.33
2019-01-06T12:14:36.370Z,914.35
2019-01-06T12:15:36.324Z,914.35
2019-01-06T12:16:36.262Z,914.30
2019-01-06T12:17:36.225Z,914.33
2019-01-06T12:18:36.202Z,914.34
2019-01-06T12:19:36.166Z,914.26
2019-01-06T12:20:36.124Z,914.25
2019-01-06T12:21:36.116Z,914.25
2019-01-06T12:22:36.085Z,914.21
2019-01-06T12:23:36.043Z,914.18
2019-01-06T12:24:36.009Z,914.12
2019-01-06T12:25:35.985Z,914.14
2019-01-06T12:26:35.948Z,914.14
2019-01-06T12:27:35.925Z,914.12
2019-01-06T12:28:35.881Z,914.13
2019-01-06T12:29:35.848Z,914.17